South Holland, Illinois
Current Conditions -  °F | °C
As of 3:35 AM on Tuesday 21 Oct 2014 (Local Time) from KIGQ Reporting Station
Overcast Overcast  
Wind Chill: 51°   Ceiling: 4800
Heat Index: 51°   Visibility: 10mi
Dew Point: 44°   Wind: 8mph
Humidity: 75%   Direction: 350°N
Pressure: 30.01"   Gusts: NA
Location:  41.6°N, 87.61°W
Report Text: KIGQ 210835Z AUTO 35007KT 320V020 10SM OVC048 11/07 A3001 RMK AO2 T01080065
Loading
Personal Weather Stations






























Interactive Weather Map
Tropical Storm Tracking
New forecast layout! Learn more

10-Day Weather Forecast

Advertisements
Track Severe Weather on mobile